Time,TemperatureF,DewpointF,PressureIn,WindDirection,WindDirectionDegrees,WindSpeedMPH,WindSpeedGustMPH,Humidity,HourlyPrecipIn,Conditions,Clouds,dailyrainin,SoftwareType,DateUTC
2013-07-18 00:08:00,54.6,54.0,30.05,SSW,198,0.0,3.0,96,0.00,,,0.00,weatherlink.com 1.10,2013-07-18 07:08:00,
2013-07-18 00:23:00,54.5,53.0,30.05,ESE,117,1.0,3.0,96,0.00,,,0.00,weatherlink.com 1.10,2013-07-18 07:23:00,
2013-07-18 00:38:00,54.5,53.0,30.05,SE,129,1.0,3.0,96,0.00,,,0.00,weatherlink.com 1.10,2013-07-18 07:38:00,
2013-07-18 00:53:00,54.3,53.0,30.04,ESE,113,0.0,3.0,96,0.00,,,0.00,weatherlink.com 1.10,2013-07-18 07:53:00,
2013-07-18 01:08:00,54.4,53.0,30.04,SE,134,0.0,0.0,96,0.00,,,0.00,weatherlink.com 1.10,2013-07-18 08:08:00,
2013-07-18 01:23:00,54.4,53.0,30.04,SE,143,0.0,1.0,96,0.00,,,0.00,weatherlink.com 1.10,2013-07-18 08:23:00,
2013-07-18 01:38:00,54.5,53.0,30.04,ESE,110,0.0,3.0,96,0.00,,,0.00,weatherlink.com 1.10,2013-07-18 08:38:00,
2013-07-18 01:53:00,54.1,53.0,30.04,SE,129,0.0,4.0,96,0.00,,,0.00,weatherlink.com 1.10,2013-07-18 08:53:00,
2013-07-18 02:08:00,54.2,53.0,30.04,ESE,113,1.0,2.0,97,0.00,,,0.00,weatherlink.com 1.10,2013-07-18 09:08:00,
2013-07-18 02:23:00,54.0,53.0,30.03,SE,127,0.0,2.0,97,0.00,,,0.00,weatherlink.com 1.10,2013-07-18 09:23:00,
2013-07-18 02:38:00,53.8,53.0,30.03,East,79,2.0,3.0,97,0.00,,,0.00,weatherlink.com 1.10,2013-07-18 09:38:00,
2013-07-18 02:53:00,53.6,53.0,30.03,South,190,0.0,0.0,97,0.00,,,0.00,weatherlink.com 1.10,2013-07-18 09:53:00,
2013-07-18 03:09:00,53.6,53.0,30.03,SSW,204,0.0,0.0,97,0.00,,,0.00,weatherlink.com 1.10,2013-07-18 10:09:00,
2013-07-18 03:24:00,53.4,53.0,30.03,SSW,208,0.0,3.0,97,0.00,,,0.00,weatherlink.com 1.10,2013-07-18 10:24:00,
2013-07-18 03:39:00,53.4,53.0,30.02,ESE,104,0.0,0.0,98,0.00,,,0.00,weatherlink.com 1.10,2013-07-18 10:39:00,
2013-07-18 04:09:00,53.3,53.0,30.02,ESE,108,0.0,0.0,98,0.00,,,0.00,weatherlink.com 1.10,2013-07-18 11:09:00,
2013-07-18 04:24:00,53.3,53.0,30.02,ESE,107,0.0,0.0,98,0.00,,,0.00,weatherlink.com 1.10,2013-07-18 11:24:00,
2013-07-18 04:39:00,53.2,53.0,30.02,ENE,68,0.0,1.0,98,0.00,,,0.00,weatherlink.com 1.10,2013-07-18 11:39:00,
2013-07-18 04:54:00,53.2,53.0,30.02,ENE,68,0.0,0.0,98,0.00,,,0.00,weatherlink.com 1.10,2013-07-18 11:54:00,
2013-07-18 05:09:00,53.0,53.0,30.02,NNW,338,0.0,0.0,98,0.00,,,0.00,weatherlink.com 1.10,2013-07-18 12:09:00,
2013-07-18 05:24:00,52.9,52.0,30.02,East,90,0.0,0.0,98,0.00,,,0.00,weatherlink.com 1.10,2013-07-18 12:24:00,
2013-07-18 05:39:00,52.9,52.0,30.02,East,98,0.0,0.0,98,0.00,,,0.00,weatherlink.com 1.10,2013-07-18 12:39:00,
2013-07-18 05:54:00,52.9,52.0,30.02,SE,134,0.0,0.0,98,0.00,,,0.00,weatherlink.com 1.10,2013-07-18 12:54:00,
2013-07-18 06:09:00,52.7,53.0,30.02,SSE,162,0.0,0.0,99,0.00,,,0.00,weatherlink.com 1.10,2013-07-18 13:09:00,
2013-07-18 06:24:00,53.0,53.0,30.03,SSE,153,0.0,2.0,99,0.00,,,0.00,weatherlink.com 1.10,2013-07-18 13:24:00,
2013-07-18 06:39:00,53.2,53.0,30.03,SSE,152,0.0,0.0,99,0.00,,,0.00,weatherlink.com 1.10,2013-07-18 13:39:00,
2013-07-18 06:54:00,53.4,53.0,30.03,SSE,167,0.0,0.0,99,0.00,,,0.00,weatherlink.com 1.10,2013-07-18 13:54:00,
2013-07-18 07:09:00,53.3,53.0,30.04,ESE,118,0.0,0.0,99,0.00,,,0.00,weatherlink.com 1.10,2013-07-18 14:09:00,
2013-07-18 07:24:00,53.6,53.0,30.04,WSW,245,0.0,0.0,99,0.00,,,0.00,weatherlink.com 1.10,2013-07-18 14:24:00,
2013-07-18 07:39:00,53.5,53.0,30.04,South,191,0.0,3.0,99,0.00,,,0.00,weatherlink.com 1.10,2013-07-18 14:39:00,
2013-07-18 07:54:00,53.8,54.0,30.04,WSW,257,0.0,2.0,99,0.00,,,0.00,weatherlink.com 1.10,2013-07-18 14:54:00,
2013-07-18 08:09:00,53.9,54.0,30.04,WNW,293,0.0,0.0,99,0.00,,,0.00,weatherlink.com 1.10,2013-07-18 15:09:00,
2013-07-18 08:24:00,54.0,54.0,30.05,SSE,163,0.0,3.0,99,0.00,,,0.00,weatherlink.com 1.10,2013-07-18 15:24:00,
2013-07-18 08:39:00,54.5,54.0,30.05,SE,142,0.0,1.0,99,0.00,,,0.00,weatherlink.com 1.10,2013-07-18 15:39:00,
2013-07-18 08:54:00,54.8,54.0,30.04,SSE,161,0.0,0.0,98,0.00,,,0.00,weatherlink.com 1.10,2013-07-18 15:54:00,
2013-07-18 09:09:00,55.4,55.0,30.04,West,260,0.0,0.0,98,0.00,,,0.00,weatherlink.com 1.10,2013-07-18 16:09:00,
2013-07-18 09:24:00,56.5,56.0,30.04,WSW,256,0.0,1.0,98,0.00,,,0.00,weatherlink.com 1.10,2013-07-18 16:24:00,
2013-07-18 09:39:00,58.1,57.0,30.04,SSW,194,1.0,2.0,96,0.00,,,0.00,weatherlink.com 1.10,2013-07-18 16:39:00,
2013-07-18 09:54:00,59.1,57.0,30.03,SSW,194,1.0,2.0,92,0.00,,,0.00,weatherlink.com 1.10,2013-07-18 16:54:00,
2013-07-18 10:09:00,60.5,57.0,30.03,WNW,302,0.0,3.0,88,0.00,,,0.00,weatherlink.com 1.10,2013-07-18 17:09:00,
2013-07-18 10:24:00,63.0,58.0,30.03,SW,225,2.0,4.0,83,0.00,,,0.00,weatherlink.com 1.10,2013-07-18 17:24:00,
2013-07-18 10:39:00,64.6,57.0,30.03,WSW,256,2.0,6.0,77,0.00,,,0.00,weatherlink.com 1.10,2013-07-18 17:39:00,
2013-07-18 10:54:00,65.5,58.0,30.03,NW,311,2.0,6.0,76,0.00,,,0.00,weatherlink.com 1.10,2013-07-18 17:54:00,
2013-07-18 11:09:00,66.6,58.0,30.03,SW,233,1.0,5.0,74,0.00,,,0.00,weatherlink.com 1.10,2013-07-18 18:09:00,
2013-07-18 11:25:00,69.1,59.0,30.02,SE,134,1.0,6.0,69,0.00,,,0.00,weatherlink.com 1.10,2013-07-18 18:25:00,
2013-07-18 11:40:00,71.1,60.0,30.02,WSW,248,6.0,9.0,67,0.00,,,0.00,weatherlink.com 1.10,2013-07-18 18:40:00,
2013-07-18 11:55:00,72.7,59.0,30.02,West,276,2.0,8.0,63,0.00,,,0.00,weatherlink.com 1.10,2013-07-18 18:55:00,
2013-07-18 12:10:00,74.0,60.0,30.02,SSW,211,4.0,8.0,62,0.00,,,0.00,weatherlink.com 1.10,2013-07-18 19:10:00,
2013-07-18 12:25:00,75.1,60.0,30.01,SSW,203,3.0,8.0,60,0.00,,,0.00,weatherlink.com 1.10,2013-07-18 19:25:00,
2013-07-18 12:40:00,75.2,60.0,30.01,SW,228,7.0,8.0,60,0.00,,,0.00,weatherlink.com 1.10,2013-07-18 19:40:00,
2013-07-18 12:55:00,75.7,60.0,30.01,NW,319,2.0,9.0,58,0.00,,,0.00,weatherlink.com 1.10,2013-07-18 19:55:00,
2013-07-18 13:10:00,76.0,60.0,30.00,South,170,4.0,8.0,58,0.00,,,0.00,weatherlink.com 1.10,2013-07-18 20:10:00,
2013-07-18 13:25:00,77.0,60.0,30.00,West,277,1.0,10.0,56,0.00,,,0.00,weatherlink.com 1.10,2013-07-18 20:25:00,
2013-07-18 13:40:00,78.1,60.0,30.00,SW,236,9.0,9.0,54,0.00,,,0.00,weatherlink.com 1.10,2013-07-18 20:40:00,
2013-07-18 13:55:00,77.9,60.0,29.99,SSW,197,6.0,11.0,54,0.00,,,0.00,weatherlink.com 1.10,2013-07-18 20:55:00,
2013-07-18 14:10:00,78.0,60.0,29.99,WSW,238,7.0,11.0,54,0.00,,,0.00,weatherlink.com 1.10,2013-07-18 21:10:00,
2013-07-18 14:25:00,78.1,60.0,29.98,SSW,205,5.0,13.0,54,0.00,,,0.00,weatherlink.com 1.10,2013-07-18 21:25:00,
2013-07-18 14:40:00,78.0,59.0,29.98,WSW,238,7.0,12.0,53,0.00,,,0.00,weatherlink.com 1.10,2013-07-18 21:40:00,
2013-07-18 14:55:00,77.2,59.0,29.98,SSW,195,7.0,15.0,53,0.00,,,0.00,weatherlink.com 1.10,2013-07-18 21:55:00,
2013-07-18 15:10:00,77.6,58.0,29.97,ESE,121,6.0,12.0,52,0.00,,,0.00,weatherlink.com 1.10,2013-07-18 22:10:00,
2013-07-18 15:25:00,77.1,59.0,29.97,SW,236,4.0,13.0,53,0.00,,,0.00,weatherlink.com 1.10,2013-07-18 22:25:00,
2013-07-18 15:40:00,76.6,58.0,29.97,SSW,210,8.0,11.0,53,0.00,,,0.00,weatherlink.com 1.10,2013-07-18 22:40:00,
2013-07-18 15:55:00,75.9,57.0,29.96,SSW,210,6.0,11.0,53,0.00,,,0.00,weatherlink.com 1.10,2013-07-18 22:55:00,
2013-07-18 16:10:00,75.8,58.0,29.96,SSW,195,11.0,13.0,54,0.00,,,0.00,weatherlink.com 1.10,2013-07-18 23:10:00,
2013-07-18 16:25:00,75.4,58.0,29.95,South,189,6.0,13.0,55,0.00,,,0.00,weatherlink.com 1.10,2013-07-18 23:25:00,
2013-07-18 16:40:00,74.7,58.0,29.95,SSW,204,8.0,13.0,56,0.00,,,0.00,weatherlink.com 1.10,2013-07-18 23:40:00,
2013-07-18 16:55:00,74.4,58.0,29.94,South,191,5.0,15.0,57,0.00,,,0.00,weatherlink.com 1.10,2013-07-18 23:55:00,
2013-07-18 17:10:00,74.0,58.0,29.94,SSE,168,8.0,16.0,58,0.00,,,0.00,weatherlink.com 1.10,2013-07-19 00:10:00,
2013-07-18 17:26:00,73.3,58.0,29.93,WSW,242,7.0,12.0,59,0.00,,,0.00,weatherlink.com 1.10,2013-07-19 00:26:00,
2013-07-18 17:41:00,72.8,58.0,29.93,SSE,162,6.0,14.0,60,0.00,,,0.00,weatherlink.com 1.10,2013-07-19 00:41:00,
2013-07-18 17:56:00,71.6,57.0,29.93,WSW,246,11.0,14.0,61,0.00,,,0.00,weatherlink.com 1.10,2013-07-19 00:56:00,
2013-07-18 18:11:00,69.8,57.0,29.93,WSW,240,12.0,15.0,64,0.00,,,0.00,weatherlink.com 1.10,2013-07-19 01:11:00,
2013-07-18 18:26:00,68.5,57.0,29.92,WSW,239,6.0,13.0,66,0.00,,,0.00,weatherlink.com 1.10,2013-07-19 01:26:00,
2013-07-18 18:41:00,67.3,56.0,29.92,SW,226,12.0,16.0,68,0.00,,,0.00,weatherlink.com 1.10,2013-07-19 01:41:00,
2013-07-18 18:56:00,66.3,56.0,29.92,SW,214,7.0,15.0,70,0.00,,,0.00,weatherlink.com 1.10,2013-07-19 01:56:00,
2013-07-18 19:11:00,65.0,55.0,29.92,SSW,197,4.0,15.0,71,0.00,,,0.00,weatherlink.com 1.10,2013-07-19 02:11:00,
2013-07-18 19:26:00,63.9,55.0,29.93,SW,219,8.0,15.0,73,0.00,,,0.00,weatherlink.com 1.10,2013-07-19 02:26:00,
2013-07-18 19:41:00,62.0,55.0,29.92,South,183,6.0,13.0,77,0.00,,,0.00,weatherlink.com 1.10,2013-07-19 02:41:00,
2013-07-18 19:56:00,60.6,54.0,29.93,SW,231,5.0,11.0,80,0.00,,,0.00,weatherlink.com 1.10,2013-07-19 02:56:00,
2013-07-18 20:11:00,59.3,54.0,29.93,SW,228,8.0,11.0,82,0.00,,,0.00,weatherlink.com 1.10,2013-07-19 03:11:00,
2013-07-18 20:26:00,57.8,53.0,29.93,SW,215,2.0,12.0,85,0.00,,,0.00,weatherlink.com 1.10,2013-07-19 03:26:00,
2013-07-18 20:41:00,56.7,53.0,29.93,SSE,158,4.0,10.0,88,0.00,,,0.00,weatherlink.com 1.10,2013-07-19 03:41:00,
2013-07-18 20:56:00,55.9,53.0,29.93,WSW,239,4.0,13.0,90,0.00,,,0.00,weatherlink.com 1.10,2013-07-19 03:56:00,
2013-07-18 21:11:00,55.5,53.0,29.93,SSE,150,6.0,12.0,91,0.00,,,0.00,weatherlink.com 1.10,2013-07-19 04:11:00,
2013-07-18 21:26:00,55.5,53.0,29.94,South,169,4.0,9.0,91,0.00,,,0.00,weatherlink.com 1.10,2013-07-19 04:26:00,
2013-07-18 21:41:00,55.4,53.0,29.94,SW,226,7.0,9.0,92,0.00,,,0.00,weatherlink.com 1.10,2013-07-19 04:41:00,
2013-07-18 21:56:00,55.2,53.0,29.94,SW,221,1.0,8.0,92,0.00,,,0.00,weatherlink.com 1.10,2013-07-19 04:56:00,
2013-07-18 22:11:00,55.1,53.0,29.94,SSW,195,2.0,6.0,92,0.00,,,0.00,weatherlink.com 1.10,2013-07-19 05:11:00,
2013-07-18 22:26:00,54.9,53.0,29.95,SSW,213,0.0,7.0,93,0.00,,,0.00,weatherlink.com 1.10,2013-07-19 05:26:00,
2013-07-18 22:41:00,54.6,53.0,29.94,South,176,0.0,4.0,93,0.00,,,0.00,weatherlink.com 1.10,2013-07-19 05:41:00,
2013-07-18 22:56:00,54.1,52.0,29.94,SW,226,0.0,0.0,93,0.00,,,0.00,weatherlink.com 1.10,2013-07-19 05:56:00,
2013-07-18 23:11:00,53.9,52.0,29.94,SW,219,2.0,3.0,94,0.00,,,0.00,weatherlink.com 1.10,2013-07-19 06:11:00,
2013-07-18 23:26:00,53.7,52.0,29.94,SSW,209,0.0,5.0,94,0.00,,,0.00,weatherlink.com 1.10,2013-07-19 06:26:00,
2013-07-18 23:41:00,53.3,52.0,29.94,South,188,0.0,0.0,94,0.00,,,0.00,weatherlink.com 1.10,2013-07-19 06:41:00,
2013-07-18 23:56:00,52.9,52.0,29.94,SE,125,0.0,0.0,95,0.00,,,0.00,weatherlink.com 1.10,2013-07-19 06:56:00,